sensor_id;sensor_type;location;lat;lon;timestamp;P1;durP1;ratioP1;P2;durP2;ratioP2
1366;SDS011;16877;48.810;9.282;2022-12-20T00:00:47;17.80;;;15.90;;
1366;SDS011;16877;48.810;9.282;2022-12-20T00:03:17;16.53;;;14.40;;
1366;SDS011;16877;48.810;9.282;2022-12-20T00:05:45;18.17;;;16.10;;
1366;SDS011;16877;48.810;9.282;2022-12-20T00:08:13;16.73;;;14.73;;
1366;SDS011;16877;48.810;9.282;2022-12-20T00:10:42;16.73;;;14.93;;
1366;SDS011;16877;48.810;9.282;2022-12-20T00:13:12;17.63;;;15.83;;
1366;SDS011;16877;48.810;9.282;2022-12-20T00:15:40;18.07;;;15.63;;
1366;SDS011;16877;48.810;9.282;2022-12-20T00:18:07;20.23;;;16.93;;
1366;SDS011;16877;48.810;9.282;2022-12-20T00:20:37;18.60;;;16.50;;
1366;SDS011;16877;48.810;9.282;2022-12-20T00:23:05;16.53;;;14.73;;
1366;SDS011;16877;48.810;9.282;2022-12-20T00:25:33;18.13;;;16.23;;
1366;SDS011;16877;48.810;9.282;2022-12-20T00:28:00;16.63;;;14.97;;
1366;SDS011;16877;48.810;9.282;2022-12-20T00:30:28;17.30;;;15.50;;
1366;SDS011;16877;48.810;9.282;2022-12-20T00:32:56;15.20;;;13.70;;
1366;SDS011;16877;48.810;9.282;2022-12-20T00:35:23;20.67;;;16.17;;
1366;SDS011;16877;48.810;9.282;2022-12-20T00:37:53;18.73;;;16.50;;
1366;SDS011;16877;48.810;9.282;2022-12-20T00:40:20;17.63;;;15.83;;
1366;SDS011;16877;48.810;9.282;2022-12-20T00:42:47;17.87;;;16.07;;
1366;SDS011;16877;48.810;9.282;2022-12-20T00:45:15;18.17;;;14.80;;
1366;SDS011;16877;48.810;9.282;2022-12-20T00:47:43;16.67;;;14.97;;
1366;SDS011;16877;48.810;9.282;2022-12-20T00:50:10;21.17;;;16.70;;
1366;SDS011;16877;48.810;9.282;2022-12-20T00:52:38;18.33;;;16.43;;
1366;SDS011;16877;48.810;9.282;2022-12-20T00:55:10;18.03;;;15.70;;
1366;SDS011;16877;48.810;9.282;2022-12-20T00:57:38;14.90;;;13.30;;
1366;SDS011;16877;48.810;9.282;2022-12-20T01:00:09;15.67;;;13.97;;
1366;SDS011;16877;48.810;9.282;2022-12-20T01:02:37;18.53;;;15.17;;
1366;SDS011;16877;48.810;9.282;2022-12-20T01:05:07;16.67;;;14.93;;
1366;SDS011;16877;48.810;9.282;2022-12-20T01:07:38;16.10;;;14.40;;
1366;SDS011;16877;48.810;9.282;2022-12-20T01:10:22;15.77;;;14.17;;
1366;SDS011;16877;48.810;9.282;2022-12-20T01:12:50;16.23;;;14.20;;
1366;SDS011;16877;48.810;9.282;2022-12-20T01:15:17;16.97;;;14.60;;
1366;SDS011;16877;48.810;9.282;2022-12-20T01:17:45;17.60;;;14.73;;
1366;SDS011;16877;48.810;9.282;2022-12-20T01:20:13;18.00;;;15.80;;
1366;SDS011;16877;48.810;9.282;2022-12-20T01:22:41;17.67;;;15.80;;
1366;SDS011;16877;48.810;9.282;2022-12-20T01:25:08;17.60;;;15.70;;
1366;SDS011;16877;48.810;9.282;2022-12-20T01:27:37;15.57;;;13.40;;
1366;SDS011;16877;48.810;9.282;2022-12-20T01:30:06;15.57;;;13.43;;
1366;SDS011;16877;48.810;9.282;2022-12-20T01:32:34;16.57;;;14.70;;
1366;SDS011;16877;48.810;9.282;2022-12-20T01:35:01;18.73;;;16.73;;
1366;SDS011;16877;48.810;9.282;2022-12-20T01:37:29;15.80;;;14.10;;
1366;SDS011;16877;48.810;9.282;2022-12-20T01:39:57;18.00;;;15.43;;
1366;SDS011;16877;48.810;9.282;2022-12-20T01:42:24;15.67;;;13.20;;
1366;SDS011;16877;48.810;9.282;2022-12-20T01:47:42;15.27;;;13.63;;
1366;SDS011;16877;48.810;9.282;2022-12-20T01:50:10;16.33;;;13.27;;
1366;SDS011;16877;48.810;9.282;2022-12-20T01:52:38;15.83;;;14.23;;
1366;SDS011;16877;48.810;9.282;2022-12-20T01:55:09;15.27;;;12.87;;
1366;SDS011;16877;48.810;9.282;2022-12-20T01:57:41;15.80;;;14.10;;
1366;SDS011;16877;48.810;9.282;2022-12-20T02:00:16;13.27;;;11.97;;
1366;SDS011;16877;48.810;9.282;2022-12-20T02:02:44;15.07;;;13.37;;
1366;SDS011;16877;48.810;9.282;2022-12-20T02:05:13;15.43;;;13.83;;
1366;SDS011;16877;48.810;9.282;2022-12-20T02:07:41;16.83;;;14.87;;
1366;SDS011;16877;48.810;9.282;2022-12-20T02:10:10;13.47;;;12.10;;
1366;SDS011;16877;48.810;9.282;2022-12-20T02:12:39;16.00;;;13.77;;
1366;SDS011;16877;48.810;9.282;2022-12-20T02:18:05;14.20;;;12.70;;
1366;SDS011;16877;48.810;9.282;2022-12-20T02:21:01;14.40;;;13.00;;
1366;SDS011;16877;48.810;9.282;2022-12-20T02:24:14;14.40;;;12.90;;
1366;SDS011;16877;48.810;9.282;2022-12-20T02:27:04;15.90;;;14.13;;
1366;SDS011;16877;48.810;9.282;2022-12-20T02:30:07;14.63;;;13.03;;
1366;SDS011;16877;48.810;9.282;2022-12-20T02:32:53;17.70;;;13.73;;
1366;SDS011;16877;48.810;9.282;2022-12-20T02:35:26;14.40;;;12.40;;
1366;SDS011;16877;48.810;9.282;2022-12-20T02:37:55;14.30;;;12.90;;
1366;SDS011;16877;48.810;9.282;2022-12-20T02:40:29;17.73;;;13.53;;
1366;SDS011;16877;48.810;9.282;2022-12-20T02:43:03;16.17;;;13.37;;
1366;SDS011;16877;48.810;9.282;2022-12-20T02:45:56;14.77;;;13.03;;
1366;SDS011;16877;48.810;9.282;2022-12-20T02:48:24;16.17;;;14.10;;
1366;SDS011;16877;48.810;9.282;2022-12-20T02:50:55;18.27;;;14.60;;
1366;SDS011;16877;48.810;9.282;2022-12-20T02:53:24;17.43;;;13.97;;
1366;SDS011;16877;48.810;9.282;2022-12-20T02:55:55;14.73;;;13.13;;
1366;SDS011;16877;48.810;9.282;2022-12-20T02:58:28;13.90;;;12.50;;
1366;SDS011;16877;48.810;9.282;2022-12-20T03:01:01;14.80;;;13.30;;
1366;SDS011;16877;48.810;9.282;2022-12-20T03:03:33;16.63;;;14.23;;
1366;SDS011;16877;48.810;9.282;2022-12-20T03:06:02;13.77;;;12.37;;
1366;SDS011;16877;48.810;9.282;2022-12-20T03:08:29;14.90;;;13.30;;
1366;SDS011;16877;48.810;9.282;2022-12-20T03:11:12;14.70;;;13.10;;
1366;SDS011;16877;48.810;9.282;2022-12-20T03:13:39;13.53;;;12.03;;
1366;SDS011;16877;48.810;9.282;2022-12-20T03:18:52;14.70;;;13.20;;
1366;SDS011;16877;48.810;9.282;2022-12-20T03:21:19;14.90;;;12.87;;
1366;SDS011;16877;48.810;9.282;2022-12-20T03:23:47;16.43;;;13.57;;
1366;SDS011;16877;48.810;9.282;2022-12-20T03:26:14;15.17;;;13.10;;
1366;SDS011;16877;48.810;9.282;2022-12-20T03:28:41;13.90;;;12.40;;
1366;SDS011;16877;48.810;9.282;2022-12-20T03:31:10;12.50;;;11.20;;
1366;SDS011;16877;48.810;9.282;2022-12-20T03:33:39;13.33;;;11.80;;
1366;SDS011;16877;48.810;9.282;2022-12-20T03:36:07;15.40;;;11.53;;
1366;SDS011;16877;48.810;9.282;2022-12-20T03:38:35;13.53;;;11.47;;
1366;SDS011;16877;48.810;9.282;2022-12-20T03:41:17;13.77;;;11.20;;
1366;SDS011;16877;48.810;9.282;2022-12-20T03:43:48;13.87;;;12.33;;
1366;SDS011;16877;48.810;9.282;2022-12-20T03:46:15;13.90;;;11.87;;
1366;SDS011;16877;48.810;9.282;2022-12-20T03:48:45;13.00;;;10.50;;
1366;SDS011;16877;48.810;9.282;2022-12-20T03:51:12;13.60;;;11.60;;
1366;SDS011;16877;48.810;9.282;2022-12-20T03:53:40;12.27;;;11.07;;
1366;SDS011;16877;48.810;9.282;2022-12-20T03:56:11;15.17;;;13.23;;
1366;SDS011;16877;48.810;9.282;2022-12-20T03:58:39;13.23;;;11.33;;
1366;SDS011;16877;48.810;9.282;2022-12-20T04:01:16;12.77;;;11.47;;
1366;SDS011;16877;48.810;9.282;2022-12-20T04:03:51;14.27;;;12.77;;
1366;SDS011;16877;48.810;9.282;2022-12-20T04:06:18;14.57;;;12.03;;
1366;SDS011;16877;48.810;9.282;2022-12-20T04:08:47;15.70;;;13.60;;
1366;SDS011;16877;48.810;9.282;2022-12-20T04:11:19;13.33;;;11.93;;
1366;SDS011;16877;48.810;9.282;2022-12-20T04:13:47;14.13;;;12.40;;
1366;SDS011;16877;48.810;9.282;2022-12-20T04:16:17;15.97;;;13.30;;
1366;SDS011;16877;48.810;9.282;2022-12-20T04:18:45;14.60;;;11.80;;
1366;SDS011;16877;48.810;9.282;2022-12-20T04:21:14;13.53;;;11.47;;
1366;SDS011;16877;48.810;9.282;2022-12-20T04:23:46;14.50;;;12.80;;
1366;SDS011;16877;48.810;9.282;2022-12-20T04:26:14;13.43;;;12.00;;
1366;SDS011;16877;48.810;9.282;2022-12-20T04:28:43;15.90;;;12.50;;
1366;SDS011;16877;48.810;9.282;2022-12-20T04:31:25;14.37;;;12.47;;
1366;SDS011;16877;48.810;9.282;2022-12-20T04:33:53;14.90;;;11.87;;
1366;SDS011;16877;48.810;9.282;2022-12-20T04:36:22;14.50;;;12.20;;
1366;SDS011;16877;48.810;9.282;2022-12-20T04:38:50;15.57;;;12.30;;
1366;SDS011;16877;48.810;9.282;2022-12-20T04:41:18;15.00;;;13.40;;
1366;SDS011;16877;48.810;9.282;2022-12-20T04:43:48;13.60;;;11.40;;
1366;SDS011;16877;48.810;9.282;2022-12-20T04:46:16;13.20;;;11.63;;
1366;SDS011;16877;48.810;9.282;2022-12-20T04:48:49;15.43;;;11.90;;
1366;SDS011;16877;48.810;9.282;2022-12-20T04:51:16;13.70;;;11.70;;
1366;SDS011;16877;48.810;9.282;2022-12-20T04:53:49;15.00;;;13.17;;
1366;SDS011;16877;48.810;9.282;2022-12-20T04:56:16;13.83;;;12.17;;
1366;SDS011;16877;48.810;9.282;2022-12-20T04:58:45;16.33;;;13.80;;
1366;SDS011;16877;48.810;9.282;2022-12-20T05:01:13;14.10;;;12.63;;
1366;SDS011;16877;48.810;9.282;2022-12-20T05:03:41;14.43;;;12.30;;
1366;SDS011;16877;48.810;9.282;2022-12-20T05:06:09;13.97;;;12.57;;
1366;SDS011;16877;48.810;9.282;2022-12-20T05:08:36;15.90;;;13.20;;
1366;SDS011;16877;48.810;9.282;2022-12-20T05:11:07;13.83;;;12.43;;
1366;SDS011;16877;48.810;9.282;2022-12-20T05:13:35;14.00;;;12.37;;
1366;SDS011;16877;48.810;9.282;2022-12-20T05:16:02;13.33;;;11.93;;
1366;SDS011;16877;48.810;9.282;2022-12-20T05:18:30;12.40;;;11.20;;
1366;SDS011;16877;48.810;9.282;2022-12-20T05:21:02;14.37;;;11.57;;
1366;SDS011;16877;48.810;9.282;2022-12-20T05:23:46;12.57;;;11.27;;
1366;SDS011;16877;48.810;9.282;2022-12-20T05:26:34;11.63;;;10.50;;
1366;SDS011;16877;48.810;9.282;2022-12-20T05:29:03;13.40;;;12.00;;
1366;SDS011;16877;48.810;9.282;2022-12-20T05:31:34;12.07;;;10.87;;
1366;SDS011;16877;48.810;9.282;2022-12-20T05:34:01;13.80;;;11.50;;
1366;SDS011;16877;48.810;9.282;2022-12-20T05:36:28;14.00;;;10.90;;
1366;SDS011;16877;48.810;9.282;2022-12-20T05:38:56;15.30;;;12.27;;
1366;SDS011;16877;48.810;9.282;2022-12-20T05:41:24;12.87;;;11.47;;
1366;SDS011;16877;48.810;9.282;2022-12-20T05:43:53;12.43;;;10.93;;
1366;SDS011;16877;48.810;9.282;2022-12-20T05:46:31;15.13;;;12.27;;
1366;SDS011;16877;48.810;9.282;2022-12-20T05:48:59;14.27;;;12.33;;
1366;SDS011;16877;48.810;9.282;2022-12-20T05:51:26;11.17;;;10.07;;
1366;SDS011;16877;48.810;9.282;2022-12-20T05:53:54;12.83;;;11.53;;
1366;SDS011;16877;48.810;9.282;2022-12-20T05:56:22;13.87;;;12.47;;
1366;SDS011;16877;48.810;9.282;2022-12-20T05:58:49;13.80;;;10.50;;
1366;SDS011;16877;48.810;9.282;2022-12-20T06:01:18;12.17;;;10.70;;
1366;SDS011;16877;48.810;9.282;2022-12-20T06:04:00;14.17;;;12.53;;
1366;SDS011;16877;48.810;9.282;2022-12-20T06:06:28;12.47;;;11.20;;
1366;SDS011;16877;48.810;9.282;2022-12-20T06:09:10;14.03;;;12.17;;
1366;SDS011;16877;48.810;9.282;2022-12-20T06:11:37;13.50;;;11.80;;
1366;SDS011;16877;48.810;9.282;2022-12-20T06:14:04;14.07;;;12.27;;
1366;SDS011;16877;48.810;9.282;2022-12-20T06:16:33;14.13;;;12.50;;
1366;SDS011;16877;48.810;9.282;2022-12-20T06:19:01;14.53;;;12.20;;
1366;SDS011;16877;48.810;9.282;2022-12-20T06:21:28;13.83;;;11.30;;
1366;SDS011;16877;48.810;9.282;2022-12-20T06:23:56;13.10;;;11.80;;
1366;SDS011;16877;48.810;9.282;2022-12-20T06:26:25;12.70;;;11.50;;
1366;SDS011;16877;48.810;9.282;2022-12-20T06:29:00;13.93;;;12.00;;
1366;SDS011;16877;48.810;9.282;2022-12-20T06:31:27;14.00;;;11.30;;
1366;SDS011;16877;48.810;9.282;2022-12-20T06:33:56;12.97;;;11.57;;
1366;SDS011;16877;48.810;9.282;2022-12-20T06:36:24;15.03;;;12.00;;
1366;SDS011;16877;48.810;9.282;2022-12-20T06:38:52;12.00;;;10.70;;
1366;SDS011;16877;48.810;9.282;2022-12-20T06:41:19;12.70;;;10.80;;
1366;SDS011;16877;48.810;9.282;2022-12-20T06:43:48;11.93;;;10.73;;
1366;SDS011;16877;48.810;9.282;2022-12-20T06:46:21;14.67;;;11.57;;
1366;SDS011;16877;48.810;9.282;2022-12-20T06:49:04;13.33;;;11.83;;
1366;SDS011;16877;48.810;9.282;2022-12-20T06:51:32;13.97;;;11.73;;
1366;SDS011;16877;48.810;9.282;2022-12-20T06:54:00;12.37;;;11.00;;
1366;SDS011;16877;48.810;9.282;2022-12-20T06:56:42;13.23;;;11.17;;
1366;SDS011;16877;48.810;9.282;2022-12-20T06:59:24;10.80;;;9.73;;
1366;SDS011;16877;48.810;9.282;2022-12-20T07:02:08;10.27;;;9.27;;
1366;SDS011;16877;48.810;9.282;2022-12-20T07:04:38;10.30;;;8.33;;
1366;SDS011;16877;48.810;9.282;2022-12-20T07:07:05;9.70;;;8.70;;
1366;SDS011;16877;48.810;9.282;2022-12-20T07:09:34;10.50;;;9.40;;
1366;SDS011;16877;48.810;9.282;2022-12-20T07:12:05;11.53;;;8.73;;
1366;SDS011;16877;48.810;9.282;2022-12-20T07:14:34;10.00;;;9.00;;
1366;SDS011;16877;48.810;9.282;2022-12-20T07:17:01;10.10;;;8.70;;
1366;SDS011;16877;48.810;9.282;2022-12-20T07:19:35;10.97;;;9.87;;
1366;SDS011;16877;48.810;9.282;2022-12-20T07:22:04;10.73;;;8.40;;
1366;SDS011;16877;48.810;9.282;2022-12-20T07:24:34;9.83;;;7.63;;
1366;SDS011;16877;48.810;9.282;2022-12-20T07:27:03;11.27;;;8.60;;
1366;SDS011;16877;48.810;9.282;2022-12-20T07:29:45;10.37;;;9.10;;
1366;SDS011;16877;48.810;9.282;2022-12-20T07:32:13;9.60;;;8.33;;
1366;SDS011;16877;48.810;9.282;2022-12-20T07:34:41;9.77;;;8.77;;
1366;SDS011;16877;48.810;9.282;2022-12-20T07:37:11;11.10;;;10.00;;
1366;SDS011;16877;48.810;9.282;2022-12-20T07:39:41;5.40;;;4.00;;
1366;SDS011;16877;48.810;9.282;2022-12-20T07:42:09;4.87;;;4.13;;
1366;SDS011;16877;48.810;9.282;2022-12-20T07:44:51;6.17;;;5.57;;
1366;SDS011;16877;48.810;9.282;2022-12-20T07:47:21;7.67;;;6.70;;
1366;SDS011;16877;48.810;9.282;2022-12-20T07:49:56;11.87;;;10.10;;
1366;SDS011;16877;48.810;9.282;2022-12-20T07:52:26;8.13;;;6.13;;
1366;SDS011;16877;48.810;9.282;2022-12-20T07:55:08;10.37;;;7.20;;
1366;SDS011;16877;48.810;9.282;2022-12-20T07:57:38;7.17;;;5.60;;
1366;SDS011;16877;48.810;9.282;2022-12-20T08:00:09;8.60;;;6.50;;
1366;SDS011;16877;48.810;9.282;2022-12-20T08:02:53;9.47;;;6.20;;
1366;SDS011;16877;48.810;9.282;2022-12-20T08:05:25;6.53;;;5.93;;
1366;SDS011;16877;48.810;9.282;2022-12-20T08:07:58;8.40;;;6.13;;
1366;SDS011;16877;48.810;9.282;2022-12-20T08:10:27;11.50;;;9.13;;
1366;SDS011;16877;48.810;9.282;2022-12-20T08:12:58;11.83;;;9.73;;
1366;SDS011;16877;48.810;9.282;2022-12-20T08:15:26;11.53;;;9.70;;
1366;SDS011;16877;48.810;9.282;2022-12-20T08:17:55;12.93;;;9.30;;
1366;SDS011;16877;48.810;9.282;2022-12-20T08:20:37;11.50;;;9.47;;
1366;SDS011;16877;48.810;9.282;2022-12-20T08:23:06;11.80;;;9.50;;
1366;SDS011;16877;48.810;9.282;2022-12-20T08:25:38;10.57;;;9.40;;
1366;SDS011;16877;48.810;9.282;2022-12-20T08:28:06;9.63;;;8.60;;
1366;SDS011;16877;48.810;9.282;2022-12-20T08:30:34;12.07;;;9.90;;
1366;SDS011;16877;48.810;9.282;2022-12-20T08:33:03;10.70;;;9.47;;
1366;SDS011;16877;48.810;9.282;2022-12-20T08:35:33;11.87;;;9.03;;
1366;SDS011;16877;48.810;9.282;2022-12-20T08:38:12;9.57;;;7.87;;
1366;SDS011;16877;48.810;9.282;2022-12-20T08:40:43;8.47;;;7.57;;
1366;SDS011;16877;48.810;9.282;2022-12-20T08:43:11;11.23;;;8.40;;
1366;SDS011;16877;48.810;9.282;2022-12-20T08:45:39;8.23;;;7.40;;
1366;SDS011;16877;48.810;9.282;2022-12-20T08:48:07;8.80;;;7.20;;
1366;SDS011;16877;48.810;9.282;2022-12-20T08:50:35;7.73;;;6.80;;
1366;SDS011;16877;48.810;9.282;2022-12-20T08:53:04;8.90;;;7.50;;
1366;SDS011;16877;48.810;9.282;2022-12-20T08:55:45;9.80;;;8.23;;
1366;SDS011;16877;48.810;9.282;2022-12-20T08:58:20;9.10;;;8.07;;
1366;SDS011;16877;48.810;9.282;2022-12-20T09:01:05;9.43;;;7.33;;
1366;SDS011;16877;48.810;9.282;2022-12-20T09:03:34;8.13;;;7.03;;
1366;SDS011;16877;48.810;9.282;2022-12-20T09:06:04;8.40;;;7.60;;
1366;SDS011;16877;48.810;9.282;2022-12-20T09:08:34;8.50;;;7.23;;
1366;SDS011;16877;48.810;9.282;2022-12-20T09:11:06;8.40;;;6.70;;
1366;SDS011;16877;48.810;9.282;2022-12-20T09:13:39;8.23;;;6.83;;
1366;SDS011;16877;48.810;9.282;2022-12-20T09:16:07;6.77;;;5.77;;
1366;SDS011;16877;48.810;9.282;2022-12-20T09:18:37;6.17;;;5.27;;
1366;SDS011;16877;48.810;9.282;2022-12-20T09:21:05;6.00;;;5.23;;
1366;SDS011;16877;48.810;9.282;2022-12-20T09:23:49;6.23;;;5.20;;
1366;SDS011;16877;48.810;9.282;2022-12-20T09:26:23;7.87;;;6.07;;
1366;SDS011;16877;48.810;9.282;2022-12-20T09:28:55;6.83;;;5.60;;
1366;SDS011;16877;48.810;9.282;2022-12-20T09:31:31;6.37;;;4.90;;
1366;SDS011;16877;48.810;9.282;2022-12-20T09:34:02;7.10;;;5.37;;
1366;SDS011;16877;48.810;9.282;2022-12-20T09:36:29;7.20;;;5.70;;
1366;SDS011;16877;48.810;9.282;2022-12-20T09:39:04;7.17;;;5.43;;
1366;SDS011;16877;48.810;9.282;2022-12-20T09:41:53;6.63;;;5.80;;
1366;SDS011;16877;48.810;9.282;2022-12-20T09:44:28;6.70;;;5.83;;
1366;SDS011;16877;48.810;9.282;2022-12-20T09:47:00;8.20;;;6.10;;
1366;SDS011;16877;48.810;9.282;2022-12-20T09:49:36;7.53;;;6.37;;
1366;SDS011;16877;48.810;9.282;2022-12-20T09:55:14;8.77;;;6.87;;
1366;SDS011;16877;48.810;9.282;2022-12-20T09:57:54;6.73;;;5.90;;
1366;SDS011;16877;48.810;9.282;2022-12-20T10:00:34;7.97;;;6.00;;
1366;SDS011;16877;48.810;9.282;2022-12-20T10:03:07;6.60;;;5.93;;
1366;SDS011;16877;48.810;9.282;2022-12-20T10:05:44;7.73;;;5.90;;
1366;SDS011;16877;48.810;9.282;2022-12-20T10:08:15;7.43;;;5.73;;
1366;SDS011;16877;48.810;9.282;2022-12-20T10:11:27;6.40;;;5.10;;
1366;SDS011;16877;48.810;9.282;2022-12-20T10:14:22;5.93;;;5.33;;
1366;SDS011;16877;48.810;9.282;2022-12-20T10:17:00;8.10;;;6.30;;
1366;SDS011;16877;48.810;9.282;2022-12-20T10:19:38;6.50;;;5.43;;
1366;SDS011;16877;48.810;9.282;2022-12-20T10:22:22;6.90;;;5.17;;
1366;SDS011;16877;48.810;9.282;2022-12-20T10:24:55;5.80;;;5.17;;
1366;SDS011;16877;48.810;9.282;2022-12-20T10:27:42;7.90;;;5.90;;
1366;SDS011;16877;48.810;9.282;2022-12-20T10:30:14;8.13;;;5.60;;
1366;SDS011;16877;48.810;9.282;2022-12-20T10:32:53;7.07;;;5.37;;
1366;SDS011;16877;48.810;9.282;2022-12-20T10:35:40;7.10;;;5.67;;
1366;SDS011;16877;48.810;9.282;2022-12-20T10:38:08;6.17;;;5.50;;
1366;SDS011;16877;48.810;9.282;2022-12-20T10:40:39;8.30;;;5.80;;
1366;SDS011;16877;48.810;9.282;2022-12-20T10:43:12;8.07;;;5.70;;
1366;SDS011;16877;48.810;9.282;2022-12-20T10:46:18;6.23;;;5.63;;
1366;SDS011;16877;48.810;9.282;2022-12-20T10:48:46;6.60;;;5.30;;
1366;SDS011;16877;48.810;9.282;2022-12-20T10:51:16;5.73;;;5.03;;
1366;SDS011;16877;48.810;9.282;2022-12-20T10:53:55;6.23;;;4.77;;
1366;SDS011;16877;48.810;9.282;2022-12-20T10:56:26;6.70;;;4.97;;
1366;SDS011;16877;48.810;9.282;2022-12-20T10:58:55;5.70;;;5.00;;
1366;SDS011;16877;48.810;9.282;2022-12-20T11:01:36;5.87;;;4.90;;
1366;SDS011;16877;48.810;9.282;2022-12-20T11:04:20;7.60;;;5.30;;
1366;SDS011;16877;48.810;9.282;2022-12-20T11:06:53;6.37;;;5.03;;
1366;SDS011;16877;48.810;9.282;2022-12-20T11:09:32;10.23;;;5.70;;
1366;SDS011;16877;48.810;9.282;2022-12-20T11:15:29;5.67;;;4.73;;
1366;SDS011;16877;48.810;9.282;2022-12-20T11:18:03;5.50;;;4.70;;
1366;SDS011;16877;48.810;9.282;2022-12-20T11:20:50;5.80;;;4.57;;
1366;SDS011;16877;48.810;9.282;2022-12-20T11:23:29;6.70;;;5.80;;
1366;SDS011;16877;48.810;9.282;2022-12-20T11:26:12;8.53;;;6.20;;
1366;SDS011;16877;48.810;9.282;2022-12-20T11:28:54;8.90;;;6.07;;
1366;SDS011;16877;48.810;9.282;2022-12-20T11:31:37;10.00;;;6.40;;
1366;SDS011;16877;48.810;9.282;2022-12-20T11:34:16;11.10;;;6.03;;
1366;SDS011;16877;48.810;9.282;2022-12-20T11:37:18;12.83;;;6.77;;
1366;SDS011;16877;48.810;9.282;2022-12-20T11:39:50;10.30;;;7.83;;
1366;SDS011;16877;48.810;9.282;2022-12-20T11:42:50;10.23;;;6.07;;
1366;SDS011;16877;48.810;9.282;2022-12-20T11:45:23;8.60;;;6.33;;
1366;SDS011;16877;48.810;9.282;2022-12-20T11:48:01;10.10;;;6.40;;
1366;SDS011;16877;48.810;9.282;2022-12-20T11:51:01;10.20;;;6.00;;
1366;SDS011;16877;48.810;9.282;2022-12-20T11:53:36;12.30;;;6.60;;
1366;SDS011;16877;48.810;9.282;2022-12-20T11:56:09;11.20;;;6.03;;
1366;SDS011;16877;48.810;9.282;2022-12-20T11:58:49;6.77;;;5.20;;
1366;SDS011;16877;48.810;9.282;2022-12-20T12:01:21;8.87;;;5.53;;
1366;SDS011;16877;48.810;9.282;2022-12-20T12:04:08;7.57;;;5.40;;
1366;SDS011;16877;48.810;9.282;2022-12-20T12:06:43;8.30;;;5.23;;
1366;SDS011;16877;48.810;9.282;2022-12-20T12:09:15;8.40;;;5.87;;
1366;SDS011;16877;48.810;9.282;2022-12-20T12:11:50;7.43;;;6.03;;
1366;SDS011;16877;48.810;9.282;2022-12-20T12:14:25;7.87;;;6.20;;
1366;SDS011;16877;48.810;9.282;2022-12-20T12:16:58;8.30;;;6.50;;
1366;SDS011;16877;48.810;9.282;2022-12-20T12:19:39;8.70;;;6.70;;
1366;SDS011;16877;48.810;9.282;2022-12-20T12:22:15;7.43;;;6.00;;
1366;SDS011;16877;48.810;9.282;2022-12-20T12:24:48;6.37;;;5.57;;
1366;SDS011;16877;48.810;9.282;2022-12-20T12:27:22;7.00;;;5.20;;
1366;SDS011;16877;48.810;9.282;2022-12-20T12:29:50;6.20;;;4.80;;
1366;SDS011;16877;48.810;9.282;2022-12-20T12:32:34;6.43;;;4.63;;
1366;SDS011;16877;48.810;9.282;2022-12-20T12:35:12;6.43;;;5.23;;
1366;SDS011;16877;48.810;9.282;2022-12-20T12:38:30;8.00;;;6.57;;
1366;SDS011;16877;48.810;9.282;2022-12-20T12:41:27;9.50;;;7.10;;
1366;SDS011;16877;48.810;9.282;2022-12-20T12:44:23;8.03;;;6.50;;
1366;SDS011;16877;48.810;9.282;2022-12-20T12:47:03;8.03;;;7.17;;
1366;SDS011;16877;48.810;9.282;2022-12-20T12:49:33;10.53;;;7.70;;
1366;SDS011;16877;48.810;9.282;2022-12-20T12:52:02;10.27;;;8.47;;
1366;SDS011;16877;48.810;9.282;2022-12-20T12:54:35;9.40;;;7.93;;
1366;SDS011;16877;48.810;9.282;2022-12-20T12:57:19;11.67;;;8.40;;
1366;SDS011;16877;48.810;9.282;2022-12-20T12:59:47;10.50;;;7.80;;
1366;SDS011;16877;48.810;9.282;2022-12-20T13:02:35;11.07;;;8.83;;
1366;SDS011;16877;48.810;9.282;2022-12-20T13:05:29;10.83;;;9.57;;
1366;SDS011;16877;48.810;9.282;2022-12-20T13:08:00;9.97;;;8.57;;
1366;SDS011;16877;48.810;9.282;2022-12-20T13:13:29;11.87;;;9.70;;
1366;SDS011;16877;48.810;9.282;2022-12-20T13:18:57;10.10;;;9.10;;
1366;SDS011;16877;48.810;9.282;2022-12-20T13:21:52;11.63;;;9.73;;
1366;SDS011;16877;48.810;9.282;2022-12-20T13:27:29;11.17;;;8.67;;
1366;SDS011;16877;48.810;9.282;2022-12-20T13:32:52;13.63;;;9.70;;
1366;SDS011;16877;48.810;9.282;2022-12-20T13:38:36;43.63;;;13.47;;
1366;SDS011;16877;48.810;9.282;2022-12-20T13:41:17;80.43;;;16.97;;
1366;SDS011;16877;48.810;9.282;2022-12-20T13:43:52;65.23;;;15.00;;
1366;SDS011;16877;48.810;9.282;2022-12-20T13:46:23;68.63;;;14.47;;
1366;SDS011;16877;48.810;9.282;2022-12-20T13:48:56;161.37;;;23.07;;
1366;SDS011;16877;48.810;9.282;2022-12-20T13:51:27;116.40;;;19.50;;
1366;SDS011;16877;48.810;9.282;2022-12-20T13:53:56;78.10;;;15.90;;
1366;SDS011;16877;48.810;9.282;2022-12-20T13:56:34;55.50;;;14.50;;
1366;SDS011;16877;48.810;9.282;2022-12-20T13:59:12;60.80;;;15.20;;
1366;SDS011;16877;48.810;9.282;2022-12-20T14:01:48;47.53;;;13.07;;
1366;SDS011;16877;48.810;9.282;2022-12-20T14:04:17;31.10;;;11.87;;
1366;SDS011;16877;48.810;9.282;2022-12-20T14:06:48;38.37;;;12.90;;
1366;SDS011;16877;48.810;9.282;2022-12-20T14:09:26;30.23;;;11.70;;
1366;SDS011;16877;48.810;9.282;2022-12-20T14:12:01;23.17;;;11.40;;
1366;SDS011;16877;48.810;9.282;2022-12-20T14:14:33;27.97;;;10.67;;
1366;SDS011;16877;48.810;9.282;2022-12-20T14:20:11;15.20;;;9.30;;
1366;SDS011;16877;48.810;9.282;2022-12-20T14:22:41;24.60;;;10.40;;
1366;SDS011;16877;48.810;9.282;2022-12-20T14:25:15;17.67;;;8.90;;
1366;SDS011;16877;48.810;9.282;2022-12-20T14:27:48;16.37;;;8.77;;
1366;SDS011;16877;48.810;9.282;2022-12-20T14:30:26;11.33;;;6.87;;
1366;SDS011;16877;48.810;9.282;2022-12-20T14:32:58;10.30;;;7.53;;
1366;SDS011;16877;48.810;9.282;2022-12-20T14:35:26;10.50;;;6.70;;
1366;SDS011;16877;48.810;9.282;2022-12-20T14:38:18;10.70;;;6.43;;
1366;SDS011;16877;48.810;9.282;2022-12-20T14:40:47;11.07;;;6.97;;
1366;SDS011;16877;48.810;9.282;2022-12-20T14:43:22;7.20;;;6.30;;
1366;SDS011;16877;48.810;9.282;2022-12-20T14:48:43;9.03;;;6.57;;
1366;SDS011;16877;48.810;9.282;2022-12-20T14:51:10;7.23;;;5.90;;
1366;SDS011;16877;48.810;9.282;2022-12-20T14:53:39;8.03;;;7.13;;
1366;SDS011;16877;48.810;9.282;2022-12-20T14:56:12;7.37;;;6.37;;
1366;SDS011;16877;48.810;9.282;2022-12-20T14:58:42;9.67;;;7.47;;
1366;SDS011;16877;48.810;9.282;2022-12-20T15:01:18;9.30;;;7.53;;
1366;SDS011;16877;48.810;9.282;2022-12-20T15:03:49;12.27;;;8.07;;
1366;SDS011;16877;48.810;9.282;2022-12-20T15:06:30;10.13;;;7.80;;
1366;SDS011;16877;48.810;9.282;2022-12-20T15:08:59;8.17;;;7.23;;
1366;SDS011;16877;48.810;9.282;2022-12-20T15:11:27;10.53;;;7.73;;
1366;SDS011;16877;48.810;9.282;2022-12-20T15:14:08;10.17;;;7.77;;
1366;SDS011;16877;48.810;9.282;2022-12-20T15:16:49;10.43;;;8.53;;
1366;SDS011;16877;48.810;9.282;2022-12-20T15:19:17;7.90;;;7.10;;
1366;SDS011;16877;48.810;9.282;2022-12-20T15:21:45;10.97;;;8.17;;
1366;SDS011;16877;48.810;9.282;2022-12-20T15:24:13;10.77;;;7.80;;
1366;SDS011;16877;48.810;9.282;2022-12-20T15:26:43;11.80;;;8.70;;
1366;SDS011;16877;48.810;9.282;2022-12-20T15:29:11;9.80;;;8.47;;
1366;SDS011;16877;48.810;9.282;2022-12-20T15:31:41;10.60;;;8.73;;
1366;SDS011;16877;48.810;9.282;2022-12-20T15:34:13;9.70;;;8.37;;
1366;SDS011;16877;48.810;9.282;2022-12-20T15:36:44;9.07;;;8.03;;
1366;SDS011;16877;48.810;9.282;2022-12-20T15:39:12;11.30;;;9.37;;
1366;SDS011;16877;48.810;9.282;2022-12-20T15:41:40;10.20;;;8.20;;
1366;SDS011;16877;48.810;9.282;2022-12-20T15:44:11;10.53;;;8.30;;
1366;SDS011;16877;48.810;9.282;2022-12-20T15:46:40;9.90;;;7.93;;
1366;SDS011;16877;48.810;9.282;2022-12-20T15:49:10;11.20;;;9.17;;
1366;SDS011;16877;48.810;9.282;2022-12-20T15:51:44;9.10;;;7.70;;
1366;SDS011;16877;48.810;9.282;2022-12-20T15:54:15;11.03;;;8.77;;
1366;SDS011;16877;48.810;9.282;2022-12-20T15:56:48;11.07;;;9.43;;